Observation data for Northfield on 11/11/2019      Previous  Date       Current Mesonet Observations  Soil Data  Daily Summary Page  Observations in Plain Language
KNOR 110600Z 25009KT 15/08 A298 RMK A01 T01480083  RH  067%=      5-min Rain = 0
KNOR 110605Z 25008KT 15/08 A298 RMK A01 T01480082  RH  066%=      5-min Rain = 0
KNOR 110610Z 25008KT 15/08 A298 RMK A01 T01450081  RH  067%=      5-min Rain = 0
KNOR 110615Z 26007KT 14/08 A2981 RMK A01 T01420079  RH  068%=      5-min Rain = 0
KNOR 110620Z 25008KT 14/08 A2981 RMK A01 T01390078  RH  068%=      5-min Rain = 0
KNOR 110625Z 26008KT 14/08 A2981 RMK A01 T01360077  RH  069%=      5-min Rain = 0
KNOR 110630Z 27006KT 13/08 A2981 RMK A01 T01330075  RH  070%=      5-min Rain = 0
KNOR 110635Z 26008KT 13/07 A2981 RMK A01 T01300072  RH  070%=      5-min Rain = 0
KNOR 110640Z 26008KT 13/07 A2981 RMK A01 T01290071  RH  070%=      5-min Rain = 0
KNOR 110645Z 26008KT 13/07 A2981 RMK A01 T01270069  RH  069%=      5-min Rain = 0
KNOR 110650Z 27008KT 13/07 A2981 RMK A01 T01270066  RH  068%=      5-min Rain = 0
KNOR 110655Z 27008KT 13/06 A2981 RMK A01 T01260063  RH  067%=      5-min Rain = 0
KNOR 110700Z 27008KT 12/06 A2981 RMK A01 T01240061  RH  067%=      5-min Rain = 0
KNOR 110705Z 27007KT 12/06 A2981 RMK A01 T01230057  RH  065%=      5-min Rain = 0
KNOR 110710Z 27008KT 12/06 A2981 RMK A01 T01210055  RH  066%=      5-min Rain = 0
KNOR 110715Z 28008KT 12/05 A298 RMK A01 T01190053  RH  065%=      5-min Rain = 0
KNOR 110720Z 28008KT 12/05 A298 RMK A01 T01190048  RH  063%=      5-min Rain = 0
KNOR 110725Z 29008KT 12/05 A2981 RMK A01 T01180045  RH  063%=      5-min Rain = 0
KNOR 110730Z 29009KT 12/04 A2981 RMK A01 T01210042  RH  059%=      5-min Rain = 0
KNOR 110735Z 29009KT 12/04 A2981 RMK A01 T01220038  RH  058%=      5-min Rain = 0
KNOR 110740Z 29009KT 12/04 A2981 RMK A01 T01220035  RH  056%=      5-min Rain = 0
KNOR 110745Z 29009KT 12/03 A2982 RMK A01 T01230033  RH  055%=      5-min Rain = 0
KNOR 110750Z 30009KT 12/03 A2983 RMK A01 T01230031  RH  054%=      5-min Rain = 0
KNOR 110755Z 30009KT 13/03 A2983 RMK A01 T01250029  RH  053%=      5-min Rain = 0
KNOR 110800Z 31008KT 13/03 A2983 RMK A01 T01280027  RH  051%=      5-min Rain = 0
KNOR 110805Z 31009KT 13/03 A2983 RMK A01 T01270025  RH  051%=      5-min Rain = 0
KNOR 110810Z 31008G13KT 13/02 A2983 RMK A01 T01280024  RH  050%=      5-min Rain = 0
KNOR 110815Z 32009G14KT 13/02 A2984 RMK A01 T01260024  RH  051%=      5-min Rain = 0
KNOR 110820Z 32010G15KT 13/02 A2984 RMK A01 T01250022  RH  050%=      5-min Rain = 0
KNOR 110825Z 32011KT 13/02 A2984 RMK A01 T01250020  RH  049%=      5-min Rain = 0
KNOR 110830Z 33011G17KT 13/02 A2984 RMK A01 T01260020  RH  049%=      5-min Rain = 0
KNOR 110835Z 33013G18KT 13/02 A2985 RMK A01 T01270022  RH  050%=      5-min Rain = 0
KNOR 110840Z 33013G18KT 13/02 A2986 RMK A01 T01290024  RH  050%=      5-min Rain = 0
KNOR 110845Z 33015KT 13/02 A2986 RMK A01 T01290023  RH  049%=      5-min Rain = 0
KNOR 110850Z 33014KT 13/03 A2986 RMK A01 T01270026  RH  051%=      5-min Rain = 0
KNOR 110855Z 33014G19KT 13/03 A2986 RMK A01 T01260030  RH  053%=      5-min Rain = 0
KNOR 110900Z 33013G18KT 13/03 A2987 RMK A01 T01250033  RH  054%=      5-min Rain = 0
KNOR 110905Z 32013KT 12/04 A2988 RMK A01 T01240036  RH  056%=      5-min Rain = 0
KNOR 110910Z 33014G20KT 12/04 A2988 RMK A01 T01230042  RH  059%=      5-min Rain = 0
KNOR 110915Z 33014G19KT 12/05 A2989 RMK A01 T01220045  RH  061%=      5-min Rain = 0
KNOR 110920Z 33013KT 12/05 A299 RMK A01 T01210049  RH  063%=      5-min Rain = 0
KNOR 110925Z 34013G18KT 12/06 A299 RMK A01 T01210055  RH  066%=      5-min Rain = 0
KNOR 110930Z 35014G20KT 12/06 A2991 RMK A01 T01210061  RH  069%=      5-min Rain = 0
KNOR 110935Z 35018KT 12/07 A2992 RMK A01 T01200065  RH  071%=      5-min Rain = 0
KNOR 110940Z 35016G22KT 12/06 A2992 RMK A01 T01180064  RH  071%=      5-min Rain = 0
KNOR 110945Z 35017G22KT 12/06 A2993 RMK A01 T01170062  RH  070%=      5-min Rain = 0
KNOR 110950Z 35015G23KT 12/06 A2993 RMK A01 T01170060  RH  070%=      5-min Rain = 0
KNOR 110955Z 35015G23KT 12/06 A2994 RMK A01 T01160059  RH  069%=      5-min Rain = 0
KNOR 111000Z 35017G23KT 12/06 A2995 RMK A01 T01160058  RH  069%=      5-min Rain = 0
KNOR 111005Z 36019G27KT 12/06 A2995 RMK A01 T01160056  RH  068%=      5-min Rain = 0
KNOR 111010Z 36013G21KT 12/06 A2996 RMK A01 T01150055  RH  068%=      5-min Rain = 0
KNOR 111015Z 35021G29KT 11/05 A2996 RMK A01 T01130050  RH  066%=      5-min Rain = 0
KNOR 111020Z 36021G30KT 11/05 A2997 RMK A01 T01100046  RH  066%=      5-min Rain = 0
KNOR 111025Z 36021G29KT 11/04 A2998 RMK A01 T01070042  RH  066%=      5-min Rain = 0
KNOR 111030Z 35019G25KT 10/04 A2999 RMK A01 T01040039  RH  065%=      5-min Rain = 0
KNOR 111035Z 35022G33KT 10/04 A2999 RMK A01 T01000036  RH  066%=      5-min Rain = 0
KNOR 111040Z 35023G30KT 10/04 A30 RMK A01 T00960036  RH  067%=      5-min Rain = 0
KNOR 111045Z 00021G29KT 09/03 A3001 RMK A01 T00940034  RH  067%=      5-min Rain = 0
KNOR 111050Z 36027G35KT 09/03 A3002 RMK A01 T00860027  RH  068%=      5-min Rain = 0
KNOR 111055Z 00024G34KT 08/03 A3002 RMK A01 T00830027  RH  069%=      5-min Rain = 0
KNOR 111100Z 36023G29KT 08/02 A3003 RMK A01 T00800022  RH  068%=      5-min Rain = 0
KNOR 111105Z 36024G32KT 08/02 A3004 RMK A01 T00750016  RH  067%=      5-min Rain = 0
KNOR 111110Z 00023G33KT 07/01 A3005 RMK A01 T00730013  RH  067%=      5-min Rain = 0
KNOR 111115Z 36019G28KT 07/01 A3006 RMK A01 T00720010  RH  066%=      5-min Rain = 0
KNOR 111120Z 36023G35KT 07/01 A3007 RMK A01 T00700005  RH  064%=      5-min Rain = 0
KNOR 111125Z 00021G29KT 07/00 A3008 RMK A01 T00680001  RH  063%=      5-min Rain = 0
KNOR 111130Z 35024G32KT 06/M01 A3009 RMK A01 T00631005  RH  062%=      5-min Rain = 0
KNOR 111135Z 35028G36KT 05/M01 A301 RMK A01 T00541010  RH  064%=      5-min Rain = 0
KNOR 111140Z 36027G36KT 05/M01 A3011 RMK A01 T00491010  RH  066%=      5-min Rain = 0
KNOR 111145Z 00026G34KT 05/M01 A3012 RMK A01 T00461012  RH  066%=      5-min Rain = 0
KNOR 111150Z 36025G33KT 04/M01 A3012 RMK A01 T00411014  RH  068%=      5-min Rain = 0
KNOR 111155Z 00020G28KT 04/M01 A3013 RMK A01 T00391014  RH  069%=      5-min Rain = 0
KNOR 111200Z 00020G26KT 04/M01 A3014 RMK A01 T00381013  RH  070%=      5-min Rain = 0
KNOR 111205Z 35020G28KT 04/M02 A3015 RMK A01 T00361016  RH  069%=      5-min Rain = 0
KNOR 111210Z 35020G28KT 03/M02 A3015 RMK A01 T00341018  RH  069%=      5-min Rain = 0
KNOR 111215Z 35020G27KT 03/M02 A3016 RMK A01 T00331018  RH  070%=      5-min Rain = 0
KNOR 111220Z 35021G31KT 03/M02 A3017 RMK A01 T00321019  RH  070%=      5-min Rain = 0
KNOR 111225Z 36024G33KT 03/M02 A3018 RMK A01 T00281019  RH  072%=      5-min Rain = 0
KNOR 111230Z 36022G30KT 03/M02 A3018 RMK A01 T00261019  RH  073%=      5-min Rain = 0
KNOR 111235Z 36022G30KT 03/M02 A3019 RMK A01 T00251019  RH  073%=      5-min Rain = 0
KNOR 111240Z 36020G27KT 02/M02 A3019 RMK A01 T00241019  RH  074%=      5-min Rain = 0
KNOR 111245Z 00021G28KT 02/M02 A302 RMK A01 T00231019  RH  075%=      5-min Rain = 0
KNOR 111250Z 00020G31KT 02/M02 A3021 RMK A01 T00221021  RH  074%=      5-min Rain = 0
KNOR 111255Z 00023G32KT 02/M02 A3022 RMK A01 T00201023  RH  074%=      5-min Rain = 0
KNOR 111300Z 36023G34KT 02/M02 A3022 RMK A01 T00191024  RH  074%=      5-min Rain = 0
KNOR 111305Z 01021G28KT 02/M03 A3022 RMK A01 T00191025  RH  073%=      5-min Rain = 0
KNOR 111310Z 00019G29KT 02/M03 A3022 RMK A01 T00191025  RH  073%=      5-min Rain = 0
KNOR 111315Z 00020G26KT 02/M03 A3023 RMK A01 T00191026  RH  073%=      5-min Rain = 0
KNOR 111320Z 36019G28KT 02/M03 A3023 RMK A01 T00171028  RH  073%=      5-min Rain = 0
KNOR 111325Z 36023G36KT 01/M03 A3024 RMK A01 T00141030  RH  073%=      5-min Rain = 0
KNOR 111330Z 00022G32KT 01/M03 A3025 RMK A01 T00121030  RH  074%=      5-min Rain = 0
KNOR 111335Z 01024G32KT 01/M03 A3025 RMK A01 T00111030  RH  074%=      5-min Rain = 0
KNOR 111340Z 01020G30KT 01/M03 A3026 RMK A01 T00111030  RH  074%=      5-min Rain = 0
KNOR 111345Z 36023G31KT 01/M03 A3027 RMK A01 T00081033  RH  074%=      5-min Rain = 0
KNOR 111350Z 36024G31KT 01/M04 A3027 RMK A01 T00051035  RH  075%=      5-min Rain = 0
KNOR 111355Z 00022G31KT 00/M04 A3028 RMK A01 T00041037  RH  075%=      5-min Rain = 0
KNOR 111400Z 01021G29KT 00/M04 A3029 RMK A01 T00041037  RH  074%=      5-min Rain = 0
KNOR 111405Z 01022G32KT 00/M04 A303 RMK A01 T00021037  RH  075%=      5-min Rain = 0
KNOR 111410Z 01018G27KT 00/M04 A3031 RMK A01 T00011036  RH  077%=      5-min Rain = 0
KNOR 111415Z 00016G24KT 00/03 A3031 RMK A01 T00000-34  RH  078%=      5-min Rain = 0
KNOR 111420Z 35019G27KT M00/M04 A3032 RMK A01 T10031036  RH  079%=      5-min Rain = 0
KNOR 111425Z 01021G27KT M00/M04 A3032 RMK A01 T10041036  RH  079%=      5-min Rain = 0
KNOR 111430Z 00022G30KT M01/M04 A3033 RMK A01 T10051040  RH  077%=      5-min Rain = 0
KNOR 111435Z 00021G27KT M00/M04 A3033 RMK A01 T10041042  RH  076%=      5-min Rain = 0
KNOR 111440Z 35020G29KT M00/M04 A3033 RMK A01 T10041043  RH  075%=      5-min Rain = 0
KNOR 111445Z 35023G33KT M01/M05 A3034 RMK A01 T10051045  RH  074%=      5-min Rain = 0
KNOR 111450Z 01026G37KT M01/M05 A3034 RMK A01 T10091051  RH  073%=      5-min Rain = 0
KNOR 111455Z 01021G29KT M01/M05 A3034 RMK A01 T10091051  RH  073%=      5-min Rain = 0
KNOR 111500Z 01021G30KT M01/M05 A3034 RMK A01 T10101052  RH  074%=      5-min Rain = 0
KNOR 111505Z 01020G28KT M01/M05 A3035 RMK A01 T10081053  RH  072%=      5-min Rain = 0
KNOR 111510Z 01026G35KT M01/M06 A3036 RMK A01 T10081057  RH  069%=      5-min Rain = 0
KNOR 111515Z 01025G36KT M01/M06 A3036 RMK A01 T10111061  RH  069%=      5-min Rain = 0
KNOR 111520Z 01023G33KT M01/M06 A3037 RMK A01 T10121062  RH  069%=      5-min Rain = 0
KNOR 111525Z 36024G31KT M01/M07 A3037 RMK A01 T10131065  RH  068%=      5-min Rain = 0
KNOR 111530Z 36024G33KT M02/M07 A3038 RMK A01 T10151067  RH  068%=      5-min Rain = 0
KNOR 111535Z 36029G38KT M02/M07 A3039 RMK A01 T10181071  RH  067%=      5-min Rain = 0
KNOR 111540Z 00025G36KT M02/M07 A3039 RMK A01 T10171073  RH  066%=      5-min Rain = 0
KNOR 111545Z 00026G34KT M02/M07 A3039 RMK A01 T10171073  RH  065%=      5-min Rain = 0
KNOR 111550Z 01025G32KT M02/M07 A304 RMK A01 T10161073  RH  065%=      5-min Rain = 0
KNOR 111555Z 01021G30KT M02/M07 A304 RMK A01 T10161073  RH  065%=      5-min Rain = 0
KNOR 111600Z 01022G30KT M02/M07 A3041 RMK A01 T10161072  RH  065%=      5-min Rain = 0
KNOR 111605Z 36022G31KT M02/M07 A3041 RMK A01 T10171071  RH  066%=      5-min Rain = 0
KNOR 111610Z 00024G34KT M02/M07 A3041 RMK A01 T10181069  RH  068%=      5-min Rain = 0
KNOR 111615Z 00020G28KT M02/M07 A3042 RMK A01 T10181067  RH  070%=      5-min Rain = 0
KNOR 111620Z 00020G26KT M02/M06 A3043 RMK A01 T10191063  RH  072%=      5-min Rain = 0
KNOR 111625Z 01023G34KT M02/M06 A3043 RMK A01 T10211059  RH  075%=      5-min Rain = 0
KNOR 111630Z 01022G31KT M02/M06 A3044 RMK A01 T10211057  RH  077%=      5-min Rain = 0
KNOR 111635Z 01021G30KT M02/M05 A3044 RMK A01 T10221054  RH  078%=      5-min Rain = 0
KNOR 111640Z 01021G30KT M02/M05 A3044 RMK A01 T10221054  RH  079%=      5-min Rain = 0
KNOR 111645Z 01019G26KT M02/M05 A3045 RMK A01 T10221053  RH  080%=      5-min Rain = 0
KNOR 111650Z 00017G26KT M02/M05 A3045 RMK A01 T10211052  RH  080%=      5-min Rain = 0
KNOR 111655Z 00018G24KT M02/M05 A3045 RMK A01 T10211051  RH  080%=      5-min Rain = 0
KNOR 111700Z 36019G27KT M02/M05 A3045 RMK A01 T10211052  RH  080%=      5-min Rain = 0
KNOR 111705Z 35019G27KT M02/M06 A3046 RMK A01 T10231057  RH  078%=      5-min Rain = 0
KNOR 111710Z 00019G27KT M02/M06 A3046 RMK A01 T10231059  RH  077%=      5-min Rain = 0
KNOR 111715Z 00019G25KT M02/M06 A3047 RMK A01 T10231061  RH  075%=      5-min Rain = 0
KNOR 111720Z 36020G27KT M02/M06 A3047 RMK A01 T10231064  RH  074%=      5-min Rain = 0
KNOR 111725Z 35021G30KT M03/M07 A3047 RMK A01 T10261069  RH  073%=      5-min Rain = 0
KNOR 111730Z 36021G33KT M03/M07 A3047 RMK A01 T10261071  RH  071%=      5-min Rain = 0
KNOR 111735Z 01023G33KT M03/M08 A3047 RMK A01 T10261077  RH  068%=      5-min Rain = 0
KNOR 111740Z 00024KT M03/M08 A3047 RMK A01 T10251081  RH  065%=      5-min Rain = 0
KNOR 111745Z 00021G29KT M02/M08 A3047 RMK A01 T10231083  RH  064%=      5-min Rain = 0
KNOR 111750Z 01023G30KT M02/M09 A3047 RMK A01 T10221085  RH  062%=      5-min Rain = 0
KNOR 111755Z 01022G30KT M02/M09 A3048 RMK A01 T10211088  RH  060%=      5-min Rain = 0
KNOR 111800Z 00020G29KT M02/M09 A3047 RMK A01 T10191090  RH  059%=      5-min Rain = 0
KNOR 111805Z 01020G28KT M02/M09 A3047 RMK A01 T10181090  RH  058%=      5-min Rain = 0
KNOR 111810Z 01020G27KT M02/M09 A3047 RMK A01 T10181091  RH  057%=      5-min Rain = 0
KNOR 111815Z 00023G29KT M02/M09 A3047 RMK A01 T10181093  RH  056%=      5-min Rain = 0
KNOR 111820Z 36024G30KT M02/M10 A3047 RMK A01 T10161095  RH  055%=      5-min Rain = 0
KNOR 111825Z 00022G30KT M02/M10 A3048 RMK A01 T10171098  RH  054%=      5-min Rain = 0
KNOR 111830Z 36018G27KT M02/M10 A3048 RMK A01 T10151097  RH  053%=      5-min Rain = 0
KNOR 111835Z 36025G31KT M02/M10 A3048 RMK A01 T10171100  RH  053%=      5-min Rain = 0
KNOR 111840Z 00021G29KT M01/M10 A3048 RMK A01 T10141098  RH  053%=      5-min Rain = 0
KNOR 111845Z 36022G30KT M02/M10 A3048 RMK A01 T10151100  RH  052%=      5-min Rain = 0
KNOR 111850Z 01023G32KT M01/M10 A3048 RMK A01 T10121099  RH  051%=      5-min Rain = 0
KNOR 111855Z 00025G32KT M01/M10 A3048 RMK A01 T10121100  RH  051%=      5-min Rain = 0
KNOR 111900Z 00023G32KT M01/M10 A3048 RMK A01 T10111099  RH  051%=      5-min Rain = 0
KNOR 111905Z 01023G30KT M01/M10 A3048 RMK A01 T10101101  RH  050%=      5-min Rain = 0
KNOR 111910Z 01020G27KT M01/M10 A3048 RMK A01 T10101102  RH  049%=      5-min Rain = 0
KNOR 111915Z 00019G25KT M01/M10 A3048 RMK A01 T10081103  RH  048%=      5-min Rain = 0
KNOR 111920Z 00021G26KT M01/M11 A3048 RMK A01 T10091106  RH  047%=      5-min Rain = 0
KNOR 111925Z 35020G29KT M01/M11 A3048 RMK A01 T10081106  RH  047%=      5-min Rain = 0
KNOR 111930Z 01020G28KT M01/M11 A3049 RMK A01 T10101108  RH  047%=      5-min Rain = 0
KNOR 111935Z 00020G29KT M01/M11 A3049 RMK A01 T10101109  RH  047%=      5-min Rain = 0
KNOR 111940Z 00022G31KT M01/M11 A3048 RMK A01 T10091112  RH  046%=      5-min Rain = 0
KNOR 111945Z 01021G27KT M01/M11 A3048 RMK A01 T10091114  RH  045%=      5-min Rain = 0
KNOR 111950Z 00021G28KT M01/M11 A3048 RMK A01 T10071114  RH  044%=      5-min Rain = 0
KNOR 111955Z 01022G32KT M01/M12 A3048 RMK A01 T10061115  RH  043%=      5-min Rain = 0
KNOR 112000Z 01026G33KT M01/M12 A3049 RMK A01 T10061116  RH  043%=      5-min Rain = 0
KNOR 112005Z 01020G29KT M00/M11 A3049 RMK A01 T10031114  RH  043%=      5-min Rain = 0
KNOR 112010Z 01018G26KT 00/M11 A3049 RMK A01 T00011112  RH  042%=      5-min Rain = 0
KNOR 112015Z 01022G29KT M00/M11 A3048 RMK A01 T10011114  RH  042%=      5-min Rain = 0
KNOR 112020Z 01019G28KT 00/M11 A3048 RMK A01 T00011112  RH  042%=      5-min Rain = 0
KNOR 112025Z 00022G28KT 00/11 A3048 RMK A01 T00000-114  RH  042%=      5-min Rain = 0
KNOR 112030Z 00020G26KT 00/11 A3048 RMK A01 T00000-112  RH  042%=      5-min Rain = 0
KNOR 112035Z 00019G26KT 00/M11 A3048 RMK A01 T00011111  RH  042%=      5-min Rain = 0
KNOR 112040Z 36022G29KT M00/M11 A3049 RMK A01 T10011113  RH  043%=      5-min Rain = 0
KNOR 112045Z 36021G29KT M00/M11 A3049 RMK A01 T10041114  RH  043%=      5-min Rain = 0
KNOR 112050Z 01020G26KT M00/M11 A3049 RMK A01 T10031113  RH  043%=      5-min Rain = 0
KNOR 112055Z 01021G29KT M00/M11 A3049 RMK A01 T10021114  RH  042%=      5-min Rain = 0
KNOR 112100Z 00020G28KT M00/M12 A3049 RMK A01 T10041115  RH  042%=      5-min Rain = 0
KNOR 112105Z 00019G26KT M00/M12 A3049 RMK A01 T10041116  RH  043%=      5-min Rain = 0
KNOR 112110Z 01022G29KT M00/M12 A305 RMK A01 T10031116  RH  042%=      5-min Rain = 0
KNOR 112115Z 01022G31KT M00/M12 A305 RMK A01 T10031116  RH  042%=      5-min Rain = 0
KNOR 112120Z 01020G30KT M00/M12 A305 RMK A01 T10021116  RH  042%=      5-min Rain = 0
KNOR 112125Z 00019G27KT M00/M12 A305 RMK A01 T10021116  RH  042%=      5-min Rain = 0
KNOR 112130Z 00019G26KT M00/M12 A305 RMK A01 T10021116  RH  042%=      5-min Rain = 0
KNOR 112135Z 00018G24KT M00/M12 A305 RMK A01 T10011115  RH  042%=      5-min Rain = 0
KNOR 112140Z 00019G27KT 00/12 A305 RMK A01 T00000-116  RH  041%=      5-min Rain = 0
KNOR 112145Z 01019G25KT 00/M12 A305 RMK A01 T00011116  RH  041%=      5-min Rain = 0
KNOR 112150Z 01017G25KT 00/M12 A305 RMK A01 T00031115  RH  041%=      5-min Rain = 0
KNOR 112155Z 01017G23KT 00/M12 A305 RMK A01 T00041115  RH  040%=      5-min Rain = 0
KNOR 112200Z 01018G25KT 00/M12 A3051 RMK A01 T00041115  RH  040%=      5-min Rain = 0
KNOR 112205Z 00018G24KT 00/M12 A3051 RMK A01 T00031115  RH  040%=      5-min Rain = 0
KNOR 112210Z 01015G21KT 01/M11 A3051 RMK A01 T00051114  RH  040%=      5-min Rain = 0
KNOR 112215Z 01014G22KT 01/M11 A3051 RMK A01 T00051114  RH  040%=      5-min Rain = 0
KNOR 112220Z 01018G24KT 00/M12 A3051 RMK A01 T00041115  RH  040%=      5-min Rain = 0
KNOR 112225Z 01017G23KT 01/M12 A305 RMK A01 T00051115  RH  040%=      5-min Rain = 0
KNOR 112230Z 01019G24KT 01/M11 A3051 RMK A01 T00071114  RH  040%=      5-min Rain = 0
KNOR 112235Z 01017G23KT 01/M11 A3051 RMK A01 T00091114  RH  039%=      5-min Rain = 0
KNOR 112240Z 01017G22KT 01/M12 A3051 RMK A01 T00081115  RH  039%=      5-min Rain = 0
KNOR 112245Z 01016G24KT 01/M12 A3052 RMK A01 T00071116  RH  039%=      5-min Rain = 0
KNOR 112250Z 01016G22KT 01/M12 A3053 RMK A01 T00061117  RH  039%=      5-min Rain = 0
KNOR 112255Z 01017G24KT 00/M12 A3054 RMK A01 T00041117  RH  040%=      5-min Rain = 0
KNOR 112300Z 01015G21KT 00/M12 A3054 RMK A01 T00021118  RH  040%=      5-min Rain = 0
KNOR 112305Z 01015G22KT 00/M12 A3054 RMK A01 T00021117  RH  040%=      5-min Rain = 0
KNOR 112310Z 01015G21KT 00/M12 A3055 RMK A01 T00011119  RH  040%=      5-min Rain = 0
KNOR 112315Z 01012KT 00/M12 A3055 RMK A01 T00011118  RH  040%=      5-min Rain = 0
KNOR 112320Z 01016G23KT 00/12 A3055 RMK A01 T00000-119  RH  040%=      5-min Rain = 0
KNOR 112325Z 01017G23KT M00/M12 A3055 RMK A01 T10011122  RH  039%=      5-min Rain = 0
KNOR 112330Z 01017KT M00/M12 A3055 RMK A01 T10031123  RH  039%=      5-min Rain = 0
KNOR 112335Z 01018G24KT M00/M13 A3055 RMK A01 T10041126  RH  039%=      5-min Rain = 0
KNOR 112340Z 01018G23KT M01/M13 A3057 RMK A01 T10061127  RH  039%=      5-min Rain = 0
KNOR 112345Z 01015G21KT M01/M13 A3057 RMK A01 T10071126  RH  040%=      5-min Rain = 0
KNOR 112350Z 01017G23KT M01/M13 A3057 RMK A01 T10071128  RH  039%=      5-min Rain = 0
KNOR 112355Z 01015G21KT M01/M13 A3057 RMK A01 T10091127  RH  040%=      5-min Rain = 0
KNOR 120000Z 01015KT M01/M13 A3057 RMK A01 T10091127  RH  040%=      5-min Rain = 0
KNOR 120005Z 01013KT M01/M13 A3057 RMK A01 T10111127  RH  041%=      5-min Rain = 0
KNOR 120010Z 01011KT M01/M13 A3058 RMK A01 T10131127  RH  041%=      5-min Rain = 0
KNOR 120015Z 01011KT M01/M13 A3058 RMK A01 T10141126  RH  042%=      5-min Rain = 0
KNOR 120020Z 01014G19KT M01/M13 A3058 RMK A01 T10141126  RH  042%=      5-min Rain = 0
KNOR 120025Z 01016G21KT M01/M13 A3059 RMK A01 T10141128  RH  041%=      5-min Rain = 0
KNOR 120030Z 01016G23KT M01/M13 A3059 RMK A01 T10141132  RH  040%=      5-min Rain = 0
KNOR 120035Z 01017G23KT M02/M14 A3059 RMK A01 T10151135  RH  039%=      5-min Rain = 0
KNOR 120040Z 01016G22KT M02/M14 A3059 RMK A01 T10161136  RH  039%=      5-min Rain = 0
KNOR 120045Z 01014G20KT M02/M14 A3059 RMK A01 T10171135  RH  040%=      5-min Rain = 0
KNOR 120050Z 01013G18KT M02/M14 A3059 RMK A01 T10191135  RH  040%=      5-min Rain = 0
KNOR 120055Z 01012G17KT M02/M13 A3059 RMK A01 T10191134  RH  041%=      5-min Rain = 0
KNOR 120100Z 01011KT M02/M13 A3059 RMK A01 T10211134  RH  041%=      5-min Rain = 0
KNOR 120105Z 01011G16KT M02/M13 A306 RMK A01 T10221134  RH  042%=      5-min Rain = 0
KNOR 120110Z 01013KT M02/M13 A306 RMK A01 T10221134  RH  042%=      5-min Rain = 0
KNOR 120115Z 01013KT M02/M13 A306 RMK A01 T10221134  RH  042%=      5-min Rain = 0
KNOR 120120Z 01013G18KT M02/M13 A306 RMK A01 T10221134  RH  042%=      5-min Rain = 0
KNOR 120125Z 01012KT M02/M13 A3061 RMK A01 T10231134  RH  042%=      5-min Rain = 0
KNOR 120130Z 01012KT M02/M13 A3061 RMK A01 T10231134  RH  042%=      5-min Rain = 0
KNOR 120135Z 01011G16KT M02/M13 A3061 RMK A01 T10241134  RH  042%=      5-min Rain = 0
KNOR 120140Z 01011KT M02/M13 A3061 RMK A01 T10241134  RH  042%=      5-min Rain = 0
KNOR 120145Z 00012KT M02/M13 A3061 RMK A01 T10241134  RH  042%=      5-min Rain = 0
KNOR 120150Z 00012G17KT M02/M14 A3062 RMK A01 T10241135  RH  042%=      5-min Rain = 0
KNOR 120155Z 00011G16KT M03/M14 A3062 RMK A01 T10251135  RH  042%=      5-min Rain = 0
KNOR 120200Z 01011G18KT M03/M14 A3062 RMK A01 T10261135  RH  042%=      5-min Rain = 0
KNOR 120205Z 01013KT M03/M14 A3062 RMK A01 T10261137  RH  042%=      5-min Rain = 0
KNOR 120210Z 01011KT M03/M14 A3063 RMK A01 T10271137  RH  042%=      5-min Rain = 0
KNOR 120215Z 01011KT M03/M14 A3063 RMK A01 T10281137  RH  042%=      5-min Rain = 0
KNOR 120220Z 00011G16KT M03/M14 A3063 RMK A01 T10281138  RH  042%=      5-min Rain = 0
KNOR 120225Z 00010KT M03/M14 A3064 RMK A01 T10291138  RH  043%=      5-min Rain = 0
KNOR 120230Z 01010KT M03/M14 A3063 RMK A01 T10301138  RH  043%=      5-min Rain = 0
KNOR 120235Z 01010KT M03/M14 A3063 RMK A01 T10321138  RH  043%=      5-min Rain = 0
KNOR 120240Z 01012KT M03/M14 A3063 RMK A01 T10311140  RH  042%=      5-min Rain = 0
KNOR 120245Z 01011G16KT M03/M14 A3064 RMK A01 T10311142  RH  042%=      5-min Rain = 0
KNOR 120250Z 01010G16KT M03/M14 A3064 RMK A01 T10321142  RH  042%=      5-min Rain = 0
KNOR 120255Z 01012G17KT M03/M14 A3064 RMK A01 T10321143  RH  042%=      5-min Rain = 0
KNOR 120300Z 01012G17KT M03/M14 A3064 RMK A01 T10321143  RH  042%=      5-min Rain = 0
KNOR 120305Z 01012KT M03/M14 A3063 RMK A01 T10331144  RH  042%=      5-min Rain = 0
KNOR 120310Z 01011G16KT M03/M14 A3064 RMK A01 T10341144  RH  042%=      5-min Rain = 0
KNOR 120315Z 01010KT M04/M14 A3064 RMK A01 T10361143  RH  043%=      5-min Rain = 0
KNOR 120320Z 01009KT M04/M14 A3064 RMK A01 T10371143  RH  043%=      5-min Rain = 0
KNOR 120325Z 01008KT M04/M14 A3064 RMK A01 T10401142  RH  045%=      5-min Rain = 0
KNOR 120330Z 02008KT M04/M14 A3064 RMK A01 T10411142  RH  045%=      5-min Rain = 0
KNOR 120335Z 01009KT M04/M14 A3064 RMK A01 T10411142  RH  045%=      5-min Rain = 0
KNOR 120340Z 01011KT M04/M14 A3064 RMK A01 T10401142  RH  044%=      5-min Rain = 0
KNOR 120345Z 01011KT M04/M14 A3064 RMK A01 T10391143  RH  044%=      5-min Rain = 0
KNOR 120350Z 01011KT M04/M14 A3064 RMK A01 T10401143  RH  044%=      5-min Rain = 0
KNOR 120355Z 01011KT M04/M14 A3065 RMK A01 T10411143  RH  044%=      5-min Rain = 0
KNOR 120400Z 01011KT M04/M14 A3065 RMK A01 T10411144  RH  044%=      5-min Rain = 0
KNOR 120405Z 01011KT M04/M14 A3065 RMK A01 T10411144  RH  044%=      5-min Rain = 0
KNOR 120410Z 01010G15KT M04/M14 A3065 RMK A01 T10421144  RH  045%=      5-min Rain = 0
KNOR 120415Z 01010G15KT M04/M14 A3065 RMK A01 T10431144  RH  045%=      5-min Rain = 0
KNOR 120420Z 01011KT M04/M14 A3066 RMK A01 T10441144  RH  045%=      5-min Rain = 0
KNOR 120425Z 01011KT M04/M15 A3066 RMK A01 T10441145  RH  045%=      5-min Rain = 0
KNOR 120430Z 01013G19KT M04/M15 A3066 RMK A01 T10441147  RH  044%=      5-min Rain = 0
KNOR 120435Z 01013KT M04/M15 A3066 RMK A01 T10441149  RH  044%=      5-min Rain = 0
KNOR 120440Z 01012KT M05/M15 A3066 RMK A01 T10451149  RH  044%=      5-min Rain = 0
KNOR 120445Z 01012G17KT M05/M15 A3066 RMK A01 T10461150  RH  043%=      5-min Rain = 0
KNOR 120450Z 01013G18KT M05/M15 A3066 RMK A01 T10461152  RH  043%=      5-min Rain = 0
KNOR 120455Z 01012KT M05/M15 A3066 RMK A01 T10471153  RH  043%=      5-min Rain = 0
KNOR 120500Z 01012G19KT M05/M15 A3066 RMK A01 T10471154  RH  042%=      5-min Rain = 0
KNOR 120505Z 01014G19KT M05/M16 A3066 RMK A01 T10471157  RH  042%=      5-min Rain = 0
KNOR 120510Z 01014G19KT M05/M16 A3066 RMK A01 T10471158  RH  041%=      5-min Rain = 0
KNOR 120515Z 01013G19KT M05/M16 A3066 RMK A01 T10481158  RH  041%=      5-min Rain = 0
KNOR 120520Z 01010KT M05/M16 A3066 RMK A01 T10511157  RH  043%=      5-min Rain = 0
KNOR 120525Z 00010KT M05/M16 A3067 RMK A01 T10521155  RH  044%=      5-min Rain = 0
KNOR 120530Z 00011KT M05/M16 A3067 RMK A01 T10521155  RH  044%=      5-min Rain = 0
KNOR 120535Z 01012KT M05/M16 A3067 RMK A01 T10531156  RH  044%=      5-min Rain = 0
KNOR 120540Z 01011KT M05/M16 A3067 RMK A01 T10531157  RH  044%=      5-min Rain = 0
KNOR 120545Z 01009KT M06/M16 A3067 RMK A01 T10551156  RH  044%=      5-min Rain = 0
KNOR 120550Z 01011G16KT M06/M16 A3067 RMK A01 T10561156  RH  044%=      5-min Rain = 0
KNOR 120555Z 01010KT M06/M16 A3067 RMK A01 T10571156  RH  045%=      5-min Rain = 0

Page generated in 0.0094 seconds.